createdAt,value
2017-10-06T00:00:02.372Z,6.42
2017-10-06T00:01:02.352Z,6.42
2017-10-06T00:02:23.326Z,6.46
2017-10-06T00:03:02.300Z,6.49
2017-10-06T00:04:02.282Z,6.57
2017-10-06T00:05:02.259Z,6.52
2017-10-06T00:06:02.244Z,6.52
2017-10-06T00:07:02.216Z,6.48
2017-10-06T00:08:23.186Z,6.46
2017-10-06T00:09:02.176Z,6.49
2017-10-06T00:10:02.146Z,6.49
2017-10-06T00:11:02.141Z,6.51
2017-10-06T00:12:02.104Z,6.51
2017-10-06T00:13:02.083Z,6.45
2017-10-06T00:14:23.082Z,6.36
2017-10-06T00:15:02.040Z,6.41
2017-10-06T00:16:02.019Z,6.35
2017-10-06T00:17:01.991Z,6.24
2017-10-06T00:18:01.976Z,6.26
2017-10-06T00:19:01.951Z,6.16
2017-10-06T00:20:22.929Z,6.07
2017-10-06T00:21:01.909Z,6.19
2017-10-06T00:22:01.892Z,6.17
2017-10-06T00:23:01.869Z,6.26
2017-10-06T00:24:01.847Z,6.26
2017-10-06T00:25:01.821Z,6.33
2017-10-06T00:26:22.839Z,6.48
2017-10-06T00:27:01.817Z,6.48
2017-10-06T00:28:01.762Z,6.56
2017-10-06T00:29:01.728Z,6.62
2017-10-06T00:30:01.721Z,6.66
2017-10-06T00:31:01.711Z,6.69
2017-10-06T00:32:22.656Z,6.79
2017-10-06T00:33:01.674Z,6.82
2017-10-06T00:34:01.622Z,6.89
2017-10-06T00:35:01.604Z,6.89
2017-10-06T00:36:01.577Z,7.00
2017-10-06T00:37:01.581Z,7.14
2017-10-06T00:38:22.568Z,7.02
2017-10-06T00:39:01.520Z,7.10
2017-10-06T00:40:01.491Z,7.11
2017-10-06T00:41:01.472Z,7.14
2017-10-06T00:42:01.450Z,7.24
2017-10-06T00:43:01.440Z,7.17
2017-10-06T00:44:22.402Z,7.25
2017-10-06T00:45:01.377Z,7.32
2017-10-06T00:46:01.353Z,7.24
2017-10-06T00:47:01.355Z,7.39
2017-10-06T00:48:01.322Z,7.38
2017-10-06T00:49:01.291Z,7.43
2017-10-06T00:50:22.277Z,7.57
2017-10-06T00:51:01.266Z,7.50
2017-10-06T00:52:01.229Z,7.50
2017-10-06T00:53:01.225Z,7.69
2017-10-06T00:54:01.180Z,7.57
2017-10-06T00:55:01.156Z,7.58
2017-10-06T00:56:22.141Z,7.66
2017-10-06T00:57:01.123Z,7.70
2017-10-06T00:58:01.132Z,7.77
2017-10-06T00:59:01.071Z,7.69
2017-10-06T01:00:01.049Z,7.82
2017-10-06T01:01:01.034Z,7.79
2017-10-06T01:02:22.011Z,7.80
2017-10-06T01:03:00.985Z,7.83
2017-10-06T01:04:00.970Z,7.77
2017-10-06T01:05:00.951Z,7.75
2017-10-06T01:06:00.930Z,7.77
2017-10-06T01:07:00.900Z,7.70
2017-10-06T01:08:21.880Z,7.77
2017-10-06T01:09:00.863Z,7.72
2017-10-06T01:10:00.857Z,7.79
2017-10-06T01:11:00.815Z,7.82
2017-10-06T01:12:00.796Z,7.75
2017-10-06T01:13:00.775Z,7.87
2017-10-06T01:14:21.751Z,7.87
2017-10-06T01:15:00.726Z,7.85
2017-10-06T01:16:00.711Z,7.85
2017-10-06T01:17:00.700Z,7.87
2017-10-06T01:18:00.672Z,7.85
2017-10-06T01:19:00.661Z,7.85
2017-10-06T01:20:21.641Z,7.90
2017-10-06T01:21:00.592Z,7.95
2017-10-06T01:22:00.585Z,7.94
2017-10-06T01:23:00.567Z,8.03
2017-10-06T01:24:00.539Z,8.05
2017-10-06T01:25:00.515Z,8.01
2017-10-06T01:26:21.509Z,8.03
2017-10-06T01:27:00.476Z,8.12
2017-10-06T01:28:00.457Z,8.18
2017-10-06T01:29:00.425Z,8.15
2017-10-06T01:30:00.401Z,8.28
2017-10-06T01:31:00.395Z,8.31
2017-10-06T01:32:21.376Z,8.38
2017-10-06T01:33:00.342Z,8.36
2017-10-06T01:34:00.326Z,8.37
2017-10-06T01:35:00.299Z,8.30
2017-10-06T01:36:00.287Z,8.28
2017-10-06T01:37:00.275Z,8.34
2017-10-06T01:38:21.238Z,8.36
2017-10-06T01:39:00.213Z,8.42
2017-10-06T01:40:00.196Z,8.42
2017-10-06T01:41:00.173Z,8.41
2017-10-06T01:42:00.155Z,8.44
2017-10-06T01:43:00.136Z,8.44
2017-10-06T01:44:21.105Z,8.45
2017-10-06T01:45:00.089Z,8.49
2017-10-06T01:46:00.075Z,8.51
2017-10-06T01:47:00.095Z,8.56
2017-10-06T01:48:00.019Z,8.56
2017-10-06T01:49:00.008Z,8.67
2017-10-06T01:50:20.980Z,8.63
2017-10-06T01:50:59.985Z,8.71
2017-10-06T01:51:59.938Z,8.70
2017-10-06T01:52:59.919Z,8.78
2017-10-06T01:53:59.902Z,8.79
2017-10-06T01:54:59.878Z,8.82
2017-10-06T01:56:20.858Z,8.79
2017-10-06T01:56:59.836Z,8.87
2017-10-06T01:57:59.821Z,8.94
2017-10-06T01:58:59.801Z,8.84
2017-10-06T01:59:59.770Z,8.88
2017-10-06T02:00:59.742Z,8.94
2017-10-06T02:02:20.746Z,8.92
2017-10-06T02:02:59.699Z,8.89
2017-10-06T02:03:59.692Z,8.99
2017-10-06T02:04:59.671Z,8.95
2017-10-06T02:05:59.656Z,9.02
2017-10-06T02:06:59.626Z,9.06
2017-10-06T02:08:20.602Z,9.02
2017-10-06T02:08:59.574Z,8.91
2017-10-06T02:09:59.556Z,8.92
2017-10-06T02:10:59.569Z,8.97
2017-10-06T02:11:59.512Z,8.94
2017-10-06T02:12:59.498Z,8.92
2017-10-06T02:14:20.467Z,8.88
2017-10-06T02:14:59.441Z,8.85
2017-10-06T02:15:59.432Z,8.74
2017-10-06T02:16:59.410Z,8.70
2017-10-06T02:17:59.393Z,8.64
2017-10-06T02:18:59.360Z,8.64
2017-10-06T02:20:20.349Z,8.55
2017-10-06T02:20:59.341Z,8.48
2017-10-06T02:21:59.303Z,8.52
2017-10-06T02:22:59.277Z,8.41
2017-10-06T02:23:59.262Z,8.41
2017-10-06T02:24:59.247Z,8.34
2017-10-06T02:26:20.225Z,8.33
2017-10-06T02:26:59.196Z,8.36
2017-10-06T02:27:59.193Z,8.34
2017-10-06T02:28:59.186Z,8.34
2017-10-06T02:29:59.133Z,8.42
2017-10-06T02:30:59.117Z,8.42
2017-10-06T02:32:20.100Z,8.41
2017-10-06T02:32:59.064Z,8.46
2017-10-06T02:33:59.045Z,8.51
2017-10-06T02:34:59.048Z,8.49
2017-10-06T02:35:59.033Z,8.46
2017-10-06T02:36:58.993Z,8.60
2017-10-06T02:38:19.961Z,8.58
2017-10-06T02:38:58.940Z,8.66
2017-10-06T02:39:58.914Z,8.67
2017-10-06T02:40:58.910Z,8.67
2017-10-06T02:41:58.875Z,8.63
2017-10-06T02:42:58.854Z,8.66
2017-10-06T02:44:19.835Z,8.61
2017-10-06T02:44:58.805Z,8.67
2017-10-06T02:45:58.795Z,8.70
2017-10-06T02:46:58.811Z,8.69
2017-10-06T02:47:58.742Z,8.70
2017-10-06T02:48:58.719Z,8.66
2017-10-06T02:50:19.722Z,8.82
2017-10-06T02:50:58.684Z,8.70
2017-10-06T02:51:58.658Z,8.70
2017-10-06T02:52:58.643Z,8.74
2017-10-06T02:53:58.636Z,8.74
2017-10-06T02:54:58.603Z,8.74
2017-10-06T02:56:19.579Z,8.81
2017-10-06T02:56:58.565Z,8.81
2017-10-06T02:57:58.534Z,8.89
2017-10-06T02:58:58.511Z,8.78
2017-10-06T02:59:58.490Z,8.87
2017-10-06T03:00:58.473Z,8.87
2017-10-06T03:02:19.447Z,8.88
2017-10-06T03:02:58.476Z,8.92
2017-10-06T03:03:58.410Z,8.94
2017-10-06T03:04:58.398Z,8.94
2017-10-06T03:05:58.375Z,8.95
2017-10-06T03:06:58.353Z,9.06
2017-10-06T03:08:19.323Z,8.99
2017-10-06T03:08:58.301Z,9.03
2017-10-06T03:09:58.282Z,9.06
2017-10-06T03:10:58.258Z,9.06
2017-10-06T03:11:58.279Z,9.08
2017-10-06T03:12:58.222Z,9.06
2017-10-06T03:14:19.216Z,9.06
2017-10-06T03:14:58.189Z,9.06
2017-10-06T03:15:58.160Z,9.08
2017-10-06T03:16:58.149Z,9.08
2017-10-06T03:17:58.120Z,9.06
2017-10-06T03:18:58.104Z,9.04
2017-10-06T03:20:19.108Z,9.06
2017-10-06T03:20:58.052Z,9.10
2017-10-06T03:21:58.086Z,9.06
2017-10-06T03:22:58.017Z,9.03
2017-10-06T03:23:58.023Z,9.10
2017-10-06T03:24:57.973Z,9.11
2017-10-06T03:26:18.961Z,9.04
2017-10-06T03:26:57.973Z,9.13
2017-10-06T03:27:57.936Z,9.18
2017-10-06T03:28:57.917Z,9.08
2017-10-06T03:29:57.889Z,9.11
2017-10-06T03:30:57.872Z,9.18
2017-10-06T03:32:18.878Z,9.08
2017-10-06T03:32:57.812Z,9.08
2017-10-06T03:33:57.787Z,9.18
2017-10-06T03:34:57.801Z,9.08
2017-10-06T03:35:57.779Z,9.06
2017-10-06T03:36:57.724Z,8.99
2017-10-06T03:38:18.715Z,9.04
2017-10-06T03:38:57.679Z,8.94
2017-10-06T03:39:57.659Z,8.95
2017-10-06T03:40:57.632Z,8.91
2017-10-06T03:41:57.626Z,8.97
2017-10-06T03:42:57.601Z,8.92
2017-10-06T03:44:18.581Z,8.97
2017-10-06T03:44:57.552Z,8.89
2017-10-06T03:45:57.549Z,9.00
2017-10-06T03:46:57.512Z,8.92
2017-10-06T03:47:57.510Z,8.99
2017-10-06T03:48:57.474Z,8.89
2017-10-06T03:50:18.482Z,9.03
2017-10-06T03:50:57.439Z,9.00
2017-10-06T03:51:57.411Z,8.99
2017-10-06T03:52:57.398Z,8.92
2017-10-06T03:53:57.391Z,8.94
2017-10-06T03:54:57.354Z,8.94
2017-10-06T03:56:18.381Z,9.02
2017-10-06T03:56:57.306Z,8.94
2017-10-06T03:57:57.305Z,8.92
2017-10-06T03:58:57.266Z,9.04
2017-10-06T03:59:57.263Z,9.06
2017-10-06T04:00:57.235Z,9.10
2017-10-06T04:02:18.208Z,9.08
2017-10-06T04:02:57.185Z,9.08
2017-10-06T04:03:57.173Z,9.04
2017-10-06T04:04:57.136Z,8.95
2017-10-06T04:05:57.121Z,8.89
2017-10-06T04:06:57.107Z,8.94
2017-10-06T04:08:18.087Z,8.94
2017-10-06T04:08:57.073Z,8.94
2017-10-06T04:09:57.092Z,8.92
2017-10-06T04:10:57.003Z,8.88
2017-10-06T04:11:56.992Z,8.92
2017-10-06T04:12:56.997Z,8.92
2017-10-06T04:14:18.021Z,9.00
2017-10-06T04:14:56.940Z,8.92
2017-10-06T04:15:56.927Z,8.92
2017-10-06T04:16:56.878Z,8.84
2017-10-06T04:17:56.903Z,8.85
2017-10-06T04:18:56.866Z,8.89
2017-10-06T04:20:17.825Z,8.97
2017-10-06T04:20:56.803Z,8.91
2017-10-06T04:21:56.792Z,8.95
2017-10-06T04:22:56.780Z,8.97
2017-10-06T04:23:56.739Z,9.02
2017-10-06T04:24:56.734Z,8.95
2017-10-06T04:26:17.708Z,8.95
2017-10-06T04:26:56.671Z,8.97
2017-10-06T04:27:56.651Z,8.95
2017-10-06T04:28:56.673Z,8.95
2017-10-06T04:29:56.624Z,8.99
2017-10-06T04:30:56.606Z,8.95
2017-10-06T04:32:17.566Z,8.99
2017-10-06T04:32:56.590Z,8.92
2017-10-06T04:33:56.537Z,8.94
2017-10-06T04:34:56.501Z,8.92
2017-10-06T04:35:56.478Z,8.94
2017-10-06T04:36:56.495Z,8.94
2017-10-06T04:38:17.432Z,8.99
2017-10-06T04:38:56.410Z,8.89
2017-10-06T04:39:56.385Z,8.99
2017-10-06T04:40:56.389Z,8.94
2017-10-06T04:41:56.353Z,8.92
2017-10-06T04:42:56.348Z,8.92
2017-10-06T04:44:17.321Z,8.94
2017-10-06T04:44:56.297Z,8.97
2017-10-06T04:45:56.284Z,8.91
2017-10-06T04:46:56.235Z,9.00
2017-10-06T04:47:56.229Z,8.92
2017-10-06T04:48:56.207Z,8.94
2017-10-06T04:50:17.174Z,8.94
2017-10-06T04:50:56.161Z,8.94
2017-10-06T04:51:56.143Z,8.92
2017-10-06T04:52:56.135Z,8.94
2017-10-06T04:53:56.097Z,8.92
2017-10-06T04:54:56.076Z,8.91
2017-10-06T04:56:17.060Z,8.89
2017-10-06T04:56:56.027Z,8.95
2017-10-06T04:57:56.021Z,8.91
2017-10-06T04:58:55.982Z,8.97
2017-10-06T04:59:55.960Z,8.89
2017-10-06T05:00:55.946Z,9.00
2017-10-06T05:02:16.919Z,9.02
2017-10-06T05:02:55.900Z,8.97
2017-10-06T05:03:55.884Z,9.08
2017-10-06T05:04:55.857Z,9.06
2017-10-06T05:05:55.840Z,9.06
2017-10-06T05:06:55.821Z,9.04
2017-10-06T05:08:16.791Z,9.06
2017-10-06T05:08:55.772Z,9.02
2017-10-06T05:09:55.753Z,9.00
2017-10-06T05:10:55.749Z,9.04
2017-10-06T05:11:55.709Z,9.03
2017-10-06T05:12:55.682Z,9.00
2017-10-06T05:14:16.670Z,9.06
2017-10-06T05:14:55.680Z,9.03
2017-10-06T05:15:55.650Z,9.06
2017-10-06T05:16:55.626Z,8.99
2017-10-06T05:17:55.676Z,8.92
2017-10-06T05:18:55.583Z,8.95
2017-10-06T05:20:16.560Z,9.02
2017-10-06T05:20:55.513Z,9.00
2017-10-06T05:21:55.498Z,8.89
2017-10-06T05:22:55.479Z,8.92
2017-10-06T05:23:55.452Z,8.97
2017-10-06T05:24:55.440Z,8.99
2017-10-06T05:26:16.413Z,9.02
2017-10-06T05:26:55.392Z,9.00
2017-10-06T05:27:55.367Z,9.10
2017-10-06T05:28:55.345Z,9.10
2017-10-06T05:29:55.330Z,9.04
2017-10-06T05:30:55.305Z,9.02
2017-10-06T05:32:16.332Z,9.00
2017-10-06T05:32:55.267Z,8.94
2017-10-06T05:33:55.251Z,9.03
2017-10-06T05:34:55.221Z,9.06
2017-10-06T05:35:55.207Z,9.00
2017-10-06T05:36:55.176Z,9.04
2017-10-06T05:38:16.167Z,9.00
2017-10-06T05:38:55.137Z,9.03
2017-10-06T05:39:55.132Z,9.10
2017-10-06T05:40:55.099Z,9.04
2017-10-06T05:41:55.094Z,9.06
2017-10-06T05:42:55.059Z,9.04
2017-10-06T05:44:16.030Z,9.08
2017-10-06T05:44:55.009Z,9.04
2017-10-06T05:45:55.017Z,9.08
2017-10-06T05:46:54.973Z,9.08
2017-10-06T05:47:54.945Z,8.91
2017-10-06T05:48:54.938Z,8.87
2017-10-06T05:50:15.913Z,8.87
2017-10-06T05:50:54.902Z,8.70
2017-10-06T05:51:54.873Z,8.74
2017-10-06T05:52:54.837Z,8.71
2017-10-06T05:53:54.823Z,8.74
2017-10-06T05:54:54.799Z,8.71
2017-10-06T05:56:15.791Z,8.73
2017-10-06T05:56:54.769Z,8.74
2017-10-06T05:57:54.744Z,8.74
2017-10-06T05:58:54.718Z,8.76
2017-10-06T05:59:54.702Z,8.87
2017-10-06T06:00:54.686Z,8.87
2017-10-06T06:02:15.654Z,8.88
2017-10-06T06:02:54.644Z,8.89
2017-10-06T06:03:54.617Z,9.02
2017-10-06T06:04:54.600Z,9.06
2017-10-06T06:05:54.576Z,9.10
2017-10-06T06:06:54.557Z,9.14
2017-10-06T06:08:15.537Z,9.10
2017-10-06T06:08:54.510Z,9.13
2017-10-06T06:09:54.495Z,9.21
2017-10-06T06:10:54.488Z,9.21
2017-10-06T06:11:54.463Z,9.31
2017-10-06T06:12:54.468Z,9.32
2017-10-06T06:14:15.416Z,9.31
2017-10-06T06:14:54.382Z,9.43
2017-10-06T06:15:54.389Z,9.31
2017-10-06T06:16:54.351Z,9.36
2017-10-06T06:17:54.343Z,9.36
2017-10-06T06:18:54.303Z,9.37
2017-10-06T06:20:15.280Z,9.40
2017-10-06T06:20:54.261Z,9.41
2017-10-06T06:21:54.237Z,9.44
2017-10-06T06:22:54.211Z,9.44
2017-10-06T06:23:54.202Z,9.39
2017-10-06T06:24:54.177Z,9.46
2017-10-06T06:26:15.158Z,9.50
2017-10-06T06:26:54.132Z,9.50
2017-10-06T06:27:54.109Z,9.55
2017-10-06T06:28:54.096Z,9.62
2017-10-06T06:29:54.076Z,9.62
2017-10-06T06:30:54.053Z,9.62
2017-10-06T06:32:15.025Z,9.72
2017-10-06T06:32:54.005Z,9.72
2017-10-06T06:33:53.987Z,9.74
2017-10-06T06:34:53.958Z,9.68
2017-10-06T06:35:53.965Z,9.66
2017-10-06T06:36:53.929Z,9.65
2017-10-06T06:38:14.928Z,9.62
2017-10-06T06:38:53.892Z,9.65
2017-10-06T06:39:53.855Z,9.59
2017-10-06T06:40:53.828Z,9.58
2017-10-06T06:41:53.817Z,9.47
2017-10-06T06:42:53.841Z,9.48
2017-10-06T06:44:14.786Z,9.47
2017-10-06T06:44:53.756Z,9.44
2017-10-06T06:45:53.741Z,9.46
2017-10-06T06:46:53.709Z,9.50
2017-10-06T06:47:53.693Z,9.50
2017-10-06T06:48:53.666Z,9.43
2017-10-06T06:50:14.658Z,9.50
2017-10-06T06:50:53.641Z,9.48
2017-10-06T06:51:53.619Z,9.51
2017-10-06T06:52:53.589Z,9.58
2017-10-06T06:53:53.573Z,9.61
2017-10-06T06:54:53.542Z,9.65
2017-10-06T06:56:14.538Z,9.65
2017-10-06T06:56:53.504Z,9.83
2017-10-06T06:57:53.518Z,9.87
2017-10-06T06:58:53.457Z,10.04
2017-10-06T06:59:53.445Z,10.01
2017-10-06T07:00:53.451Z,10.09
2017-10-06T07:02:17.253Z,10.01
2017-10-06T07:02:53.392Z,10.05
2017-10-06T07:03:53.395Z,10.05
2017-10-06T07:04:53.343Z,10.12
2017-10-06T07:05:53.314Z,10.17
2017-10-06T07:06:53.295Z,10.31
2017-10-06T07:08:14.275Z,10.41
2017-10-06T07:08:53.265Z,10.40
2017-10-06T07:09:53.255Z,10.40
2017-10-06T07:10:53.221Z,10.51
2017-10-06T07:11:53.216Z,10.60
2017-10-06T07:12:53.173Z,10.53
2017-10-06T07:14:14.169Z,10.46
2017-10-06T07:14:53.141Z,10.53
2017-10-06T07:15:53.109Z,10.40
2017-10-06T07:16:53.095Z,10.54
2017-10-06T07:17:53.081Z,10.37
2017-10-06T07:18:53.057Z,10.37
2017-10-06T07:20:14.049Z,10.41
2017-10-06T07:20:53.013Z,10.30
2017-10-06T07:21:52.988Z,10.31
2017-10-06T07:22:52.973Z,10.30
2017-10-06T07:23:52.955Z,10.26
2017-10-06T07:24:52.933Z,10.38
2017-10-06T07:26:13.910Z,10.37
2017-10-06T07:26:52.902Z,10.42
2017-10-06T07:27:52.875Z,10.40
2017-10-06T07:28:52.860Z,10.42
2017-10-06T07:29:52.829Z,10.44
2017-10-06T07:30:52.800Z,10.40
2017-10-06T07:32:13.797Z,10.41
2017-10-06T07:32:52.762Z,10.44
2017-10-06T07:33:52.750Z,10.37
2017-10-06T07:34:52.721Z,10.54
2017-10-06T07:35:52.700Z,10.35
2017-10-06T07:36:52.683Z,10.42
2017-10-06T07:38:13.665Z,10.42
2017-10-06T07:38:52.636Z,10.49
2017-10-06T07:39:52.620Z,10.38
2017-10-06T07:40:52.600Z,10.35
2017-10-06T07:41:52.575Z,10.38
2017-10-06T07:42:52.597Z,10.53
2017-10-06T07:44:13.532Z,10.44
2017-10-06T07:44:52.515Z,10.54
2017-10-06T07:45:52.497Z,10.53
2017-10-06T07:46:52.472Z,10.56
2017-10-06T07:47:52.457Z,10.68
2017-10-06T07:48:52.429Z,10.94
2017-10-06T07:50:13.424Z,11.18
2017-10-06T07:50:52.396Z,11.23
2017-10-06T07:51:52.375Z,11.26
2017-10-06T07:52:52.356Z,11.29
2017-10-06T07:53:52.338Z,11.37
2017-10-06T07:54:52.309Z,11.33
2017-10-06T07:56:13.294Z,11.52
2017-10-06T07:56:52.270Z,11.62
2017-10-06T07:57:52.256Z,11.80
2017-10-06T07:58:52.242Z,11.95
2017-10-06T07:59:52.222Z,11.99
2017-10-06T08:00:52.191Z,11.99
2017-10-06T08:02:13.173Z,11.87
2017-10-06T08:02:52.159Z,11.97
2017-10-06T08:03:52.141Z,12.32
2017-10-06T08:04:52.111Z,12.90
2017-10-06T08:05:52.103Z,13.19
2017-10-06T08:06:52.071Z,13.20
2017-10-06T08:08:13.066Z,13.16
2017-10-06T08:08:52.033Z,13.04
2017-10-06T08:09:52.031Z,13.00
2017-10-06T08:10:52.000Z,12.76
2017-10-06T08:11:51.994Z,12.67
2017-10-06T08:12:51.958Z,12.43
2017-10-06T08:14:12.939Z,12.42
2017-10-06T08:14:51.923Z,12.67
2017-10-06T08:15:51.904Z,12.87
2017-10-06T08:16:51.880Z,12.95
2017-10-06T08:17:51.868Z,13.22
2017-10-06T08:18:51.850Z,13.77
2017-10-06T08:20:12.831Z,13.99
2017-10-06T08:20:51.803Z,14.15
2017-10-06T08:21:51.816Z,14.03
2017-10-06T08:22:51.775Z,13.89
2017-10-06T08:23:51.753Z,13.63
2017-10-06T08:24:51.729Z,13.30
2017-10-06T08:26:12.723Z,13.08
2017-10-06T08:26:51.703Z,13.13
2017-10-06T08:27:51.698Z,13.11
2017-10-06T08:28:51.663Z,13.18
2017-10-06T08:29:51.668Z,13.12
2017-10-06T08:30:51.624Z,13.20
2017-10-06T08:32:12.626Z,13.16
2017-10-06T08:32:51.603Z,13.25
2017-10-06T08:33:51.575Z,13.39
2017-10-06T08:34:51.543Z,13.74
2017-10-06T08:35:51.541Z,13.93
2017-10-06T08:36:51.525Z,13.99
2017-10-06T08:38:12.518Z,13.93
2017-10-06T08:38:51.478Z,13.71
2017-10-06T08:39:51.484Z,13.63
2017-10-06T08:40:51.473Z,13.44
2017-10-06T08:41:51.432Z,13.09
2017-10-06T08:42:51.406Z,12.97
2017-10-06T08:44:12.397Z,13.19
2017-10-06T08:44:51.374Z,14.10
2017-10-06T08:45:51.351Z,15.15
2017-10-06T08:46:51.339Z,16.38
2017-10-06T08:47:51.327Z,17.54
2017-10-06T08:48:51.294Z,18.62
2017-10-06T08:50:12.295Z,19.77
2017-10-06T08:50:51.278Z,20.72
2017-10-06T08:51:51.259Z,21.43
2017-10-06T08:52:51.232Z,22.23
2017-10-06T08:53:51.216Z,23.17
2017-10-06T08:54:51.199Z,24.06
2017-10-06T08:56:12.218Z,24.77
2017-10-06T08:56:51.159Z,24.99
2017-10-06T08:57:51.190Z,24.98
2017-10-06T08:58:51.141Z,24.10
2017-10-06T08:59:51.136Z,23.17
2017-10-06T09:00:51.111Z,22.99
2017-10-06T09:02:12.116Z,23.03
2017-10-06T09:02:51.087Z,22.51
2017-10-06T09:03:51.084Z,21.80
2017-10-06T09:04:51.110Z,21.09
2017-10-06T09:05:51.313Z,20.37
2017-10-06T09:06:51.042Z,20.18
2017-10-06T09:08:12.057Z,20.06
2017-10-06T09:08:51.021Z,20.39
2017-10-06T09:09:51.013Z,20.48
2017-10-06T09:10:51.001Z,20.80
2017-10-06T09:11:50.988Z,21.03
2017-10-06T09:12:50.980Z,21.42
2017-10-06T09:14:11.966Z,21.61
2017-10-06T09:14:50.946Z,21.73
2017-10-06T09:15:50.943Z,21.96
2017-10-06T09:16:50.941Z,21.43
2017-10-06T09:17:50.949Z,20.67
2017-10-06T09:18:50.905Z,19.92
2017-10-06T09:20:11.894Z,19.31
2017-10-06T09:20:50.874Z,18.84
2017-10-06T09:21:50.883Z,18.50
2017-10-06T09:22:50.852Z,18.56
2017-10-06T09:23:50.834Z,18.95
2017-10-06T09:24:50.843Z,19.54
2017-10-06T09:26:11.817Z,20.16
2017-10-06T09:26:50.799Z,20.51
2017-10-06T09:27:50.787Z,20.96
2017-10-06T09:28:50.765Z,21.07
2017-10-06T09:29:50.765Z,20.70
2017-10-06T09:30:50.786Z,20.59
2017-10-06T09:32:11.740Z,20.34
2017-10-06T09:32:50.719Z,20.02
2017-10-06T09:33:50.708Z,19.51
2017-10-06T09:34:50.702Z,19.26
2017-10-06T09:35:50.703Z,18.77
2017-10-06T09:36:50.664Z,18.40
2017-10-06T09:38:11.656Z,18.11
2017-10-06T09:38:50.649Z,17.94
2017-10-06T09:39:50.636Z,17.67
2017-10-06T09:40:50.618Z,17.26
2017-10-06T09:41:50.628Z,17.04
2017-10-06T09:42:50.591Z,16.87
2017-10-06T09:44:11.597Z,16.68
2017-10-06T09:44:50.566Z,16.54
2017-10-06T09:45:50.552Z,16.33
2017-10-06T09:46:50.534Z,16.24
2017-10-06T09:47:50.524Z,16.20
2017-10-06T09:48:50.503Z,16.28
2017-10-06T09:50:11.498Z,16.15
2017-10-06T09:50:50.473Z,16.04
2017-10-06T09:51:50.469Z,15.88
2017-10-06T09:52:50.450Z,15.76
2017-10-06T09:53:50.438Z,15.40
2017-10-06T09:54:50.422Z,15.31
2017-10-06T09:56:11.420Z,15.39
2017-10-06T09:56:50.399Z,15.19
2017-10-06T09:57:50.380Z,15.07
2017-10-06T09:58:50.363Z,14.91
2017-10-06T09:59:50.339Z,15.17
2017-10-06T10:00:50.339Z,15.70
2017-10-06T10:02:11.304Z,16.05
2017-10-06T10:02:50.325Z,16.29
2017-10-06T10:03:50.282Z,16.66
2017-10-06T10:04:50.260Z,17.48
2017-10-06T10:05:50.250Z,18.13
2017-10-06T10:06:50.247Z,18.65
2017-10-06T10:08:11.228Z,19.18
2017-10-06T10:08:50.196Z,20.36
2017-10-06T10:09:50.190Z,21.05
2017-10-06T10:10:50.186Z,21.09
2017-10-06T10:11:50.146Z,21.00
2017-10-06T10:12:50.144Z,21.29
2017-10-06T10:14:11.128Z,21.89
2017-10-06T10:14:50.109Z,22.07
2017-10-06T10:15:50.113Z,21.77
2017-10-06T10:16:50.092Z,21.20
2017-10-06T10:17:50.082Z,20.34
2017-10-06T10:18:50.058Z,19.49
2017-10-06T10:20:11.051Z,18.60
2017-10-06T10:20:50.040Z,17.95
2017-10-06T10:21:50.020Z,17.52
2017-10-06T10:22:50.078Z,16.96
2017-10-06T10:23:49.992Z,16.57
2017-10-06T10:24:49.987Z,16.15
2017-10-06T10:26:10.979Z,15.73
2017-10-06T10:26:49.973Z,15.47
2017-10-06T10:27:49.951Z,15.39
2017-10-06T10:28:49.930Z,15.25
2017-10-06T10:29:49.906Z,15.14
2017-10-06T10:30:49.896Z,15.04
2017-10-06T10:32:10.881Z,15.03
2017-10-06T10:32:49.863Z,15.03
2017-10-06T10:33:49.859Z,15.07
2017-10-06T10:34:49.836Z,15.00
2017-10-06T10:35:49.813Z,15.02
2017-10-06T10:36:49.808Z,14.94
2017-10-06T10:38:10.802Z,14.77
2017-10-06T10:38:49.773Z,14.58
2017-10-06T10:39:49.758Z,14.37
2017-10-06T10:40:49.750Z,14.25
2017-10-06T10:41:49.736Z,14.28
2017-10-06T10:42:49.705Z,14.32
2017-10-06T10:44:10.702Z,14.59
2017-10-06T10:44:49.683Z,14.81
2017-10-06T10:45:49.660Z,14.97
2017-10-06T10:46:49.645Z,15.21
2017-10-06T10:47:49.625Z,15.39
2017-10-06T10:48:49.617Z,15.43
2017-10-06T10:50:10.593Z,15.29
2017-10-06T10:50:49.570Z,15.18
2017-10-06T10:51:49.572Z,15.02
2017-10-06T10:52:49.553Z,14.79
2017-10-06T10:53:49.525Z,14.78
2017-10-06T10:54:49.538Z,14.51
2017-10-06T10:56:10.502Z,14.54
2017-10-06T10:56:49.492Z,14.43
2017-10-06T10:57:49.460Z,14.48
2017-10-06T10:58:49.442Z,14.33
2017-10-06T10:59:49.422Z,14.23
2017-10-06T11:00:49.415Z,14.20
2017-10-06T11:02:10.383Z,14.08
2017-10-06T11:02:49.377Z,14.14
2017-10-06T11:03:49.360Z,14.18
2017-10-06T11:04:49.340Z,14.12
2017-10-06T11:05:49.360Z,14.25
2017-10-06T11:06:49.312Z,14.12
2017-10-06T11:08:10.321Z,14.07
2017-10-06T11:08:49.272Z,14.12
2017-10-06T11:09:49.296Z,14.12
2017-10-06T11:10:49.248Z,14.10
2017-10-06T11:11:49.212Z,14.10
2017-10-06T11:12:49.188Z,13.97
2017-10-06T11:14:10.186Z,13.99
2017-10-06T11:14:49.278Z,13.95
2017-10-06T11:15:49.158Z,13.77
2017-10-06T11:16:49.131Z,13.68
2017-10-06T11:17:49.117Z,13.56
2017-10-06T11:18:49.100Z,13.44
2017-10-06T11:20:10.082Z,13.44
2017-10-06T11:20:49.065Z,13.28
2017-10-06T11:21:49.054Z,13.23
2017-10-06T11:22:49.023Z,13.20
2017-10-06T11:23:49.005Z,13.12
2017-10-06T11:24:48.991Z,13.01
2017-10-06T11:26:09.974Z,12.97
2017-10-06T11:26:48.951Z,12.91
2017-10-06T11:27:48.939Z,12.93
2017-10-06T11:28:48.925Z,12.80
2017-10-06T11:29:48.934Z,12.65
2017-10-06T11:30:48.879Z,12.61
2017-10-06T11:32:09.888Z,12.54
2017-10-06T11:32:48.851Z,12.58
2017-10-06T11:33:48.846Z,12.53
2017-10-06T11:34:48.841Z,12.58
2017-10-06T11:35:48.803Z,12.45
2017-10-06T11:36:48.771Z,12.47
2017-10-06T11:38:09.754Z,12.47
2017-10-06T11:38:48.753Z,12.42
2017-10-06T11:39:48.735Z,12.39
2017-10-06T11:40:48.724Z,12.37
2017-10-06T11:41:48.684Z,12.27
2017-10-06T11:42:48.687Z,12.32
2017-10-06T11:44:09.662Z,12.22
2017-10-06T11:44:48.631Z,12.27
2017-10-06T11:45:48.605Z,12.32
2017-10-06T11:46:48.623Z,12.35
2017-10-06T11:47:48.587Z,12.49
2017-10-06T11:48:48.578Z,12.47
2017-10-06T11:50:09.606Z,12.60
2017-10-06T11:50:48.583Z,12.61
2017-10-06T11:51:48.524Z,12.87
2017-10-06T11:52:48.478Z,13.08
2017-10-06T11:53:48.465Z,13.18
2017-10-06T11:54:48.480Z,13.27
2017-10-06T11:56:09.431Z,13.18
2017-10-06T11:56:48.428Z,13.15
2017-10-06T11:57:48.389Z,13.15
2017-10-06T11:58:48.362Z,13.04
2017-10-06T11:59:48.361Z,13.04
2017-10-06T12:00:48.403Z,13.03
2017-10-06T12:02:09.332Z,13.04
2017-10-06T12:02:48.289Z,13.04
2017-10-06T12:03:48.328Z,13.16
2017-10-06T12:04:48.253Z,13.22
2017-10-06T12:05:48.236Z,13.38
2017-10-06T12:06:48.236Z,13.53
2017-10-06T12:08:09.216Z,13.63
2017-10-06T12:08:48.170Z,13.90
2017-10-06T12:09:48.155Z,14.18
2017-10-06T12:10:48.145Z,14.65
2017-10-06T12:11:48.147Z,15.25
2017-10-06T12:12:48.168Z,15.77
2017-10-06T12:14:09.197Z,16.39
2017-10-06T12:14:48.071Z,17.04
2017-10-06T12:15:48.147Z,17.57
2017-10-06T12:16:48.137Z,18.10
2017-10-06T12:17:48.056Z,18.55
2017-10-06T12:18:48.047Z,18.93
2017-10-06T12:20:09.030Z,18.86
2017-10-06T12:20:48.002Z,18.81
2017-10-06T12:21:47.989Z,18.95
2017-10-06T12:22:47.966Z,19.15
2017-10-06T12:23:47.941Z,19.59
2017-10-06T12:24:47.911Z,20.11
2017-10-06T12:26:08.938Z,20.40
2017-10-06T12:26:47.894Z,20.36
2017-10-06T12:27:47.864Z,20.36
2017-10-06T12:28:47.853Z,20.65
2017-10-06T12:29:47.835Z,21.02
2017-10-06T12:30:47.816Z,21.27
2017-10-06T12:32:08.844Z,21.48
2017-10-06T12:32:47.799Z,21.54
2017-10-06T12:33:47.769Z,21.83
2017-10-06T12:34:47.775Z,21.98
2017-10-06T12:35:47.753Z,22.23
2017-10-06T12:36:47.748Z,22.65
2017-10-06T12:38:08.737Z,22.75
2017-10-06T12:38:47.723Z,22.44
2017-10-06T12:39:47.696Z,22.14
2017-10-06T12:40:47.689Z,21.99
2017-10-06T12:41:47.665Z,22.14
2017-10-06T12:42:47.664Z,22.08
2017-10-06T12:44:08.657Z,21.98
2017-10-06T12:44:47.653Z,22.04
2017-10-06T12:45:47.633Z,22.22
2017-10-06T12:46:47.612Z,22.11
2017-10-06T12:47:47.604Z,22.18
2017-10-06T12:48:47.645Z,22.15
2017-10-06T12:50:08.574Z,21.62
2017-10-06T12:50:47.578Z,21.09
2017-10-06T12:51:47.563Z,20.67
2017-10-06T12:52:47.619Z,20.34
2017-10-06T12:53:47.541Z,19.86
2017-10-06T12:54:47.561Z,19.36
2017-10-06T12:56:08.536Z,18.84
2017-10-06T12:56:47.545Z,18.40
2017-10-06T12:57:47.537Z,18.31
2017-10-06T12:58:47.512Z,18.04
2017-10-06T12:59:47.481Z,17.92
2017-10-06T13:00:47.458Z,17.87
2017-10-06T13:02:08.490Z,17.95
2017-10-06T13:02:47.443Z,18.07
2017-10-06T13:03:47.419Z,18.41
2017-10-06T13:04:47.412Z,18.62
2017-10-06T13:05:47.420Z,18.59